sensor_id;sensor_type;location;lat;lon;timestamp;P1;durP1;ratioP1;P2;durP2;ratioP2
52982;SDS011;48698;45.736;13.926;2023-05-20T00:03:09;6.00;;;4.80;;
52982;SDS011;48698;45.736;13.926;2023-05-20T00:08:13;5.85;;;5.25;;
52982;SDS011;48698;45.736;13.926;2023-05-20T00:13:26;6.30;;;5.70;;
52982;SDS011;48698;45.736;13.926;2023-05-20T00:18:28;6.32;;;5.55;;
52982;SDS011;48698;45.736;13.926;2023-05-20T00:23:31;7.20;;;5.78;;
52982;SDS011;48698;45.736;13.926;2023-05-20T00:28:36;6.07;;;4.97;;
52982;SDS011;48698;45.736;13.926;2023-05-20T00:33:39;6.28;;;4.82;;
52982;SDS011;48698;45.736;13.926;2023-05-20T00:38:42;6.10;;;4.40;;
52982;SDS011;48698;45.736;13.926;2023-05-20T00:43:44;5.22;;;4.72;;
52982;SDS011;48698;45.736;13.926;2023-05-20T00:48:47;5.47;;;4.95;;
52982;SDS011;48698;45.736;13.926;2023-05-20T00:53:56;7.15;;;5.38;;
52982;SDS011;48698;45.736;13.926;2023-05-20T00:59:00;7.32;;;5.60;;
52982;SDS011;48698;45.736;13.926;2023-05-20T01:04:03;6.95;;;6.22;;
52982;SDS011;48698;45.736;13.926;2023-05-20T01:09:06;6.88;;;6.22;;
52982;SDS011;48698;45.736;13.926;2023-05-20T01:14:09;10.80;;;7.22;;
52982;SDS011;48698;45.736;13.926;2023-05-20T01:19:34;7.68;;;6.30;;
52982;SDS011;48698;45.736;13.926;2023-05-20T01:24:45;7.95;;;6.18;;
52982;SDS011;48698;45.736;13.926;2023-05-20T01:29:51;8.02;;;7.22;;
52982;SDS011;48698;45.736;13.926;2023-05-20T01:34:54;9.73;;;7.35;;
52982;SDS011;48698;45.736;13.926;2023-05-20T01:39:59;8.52;;;7.50;;
52982;SDS011;48698;45.736;13.926;2023-05-20T01:45:02;8.63;;;7.72;;
52982;SDS011;48698;45.736;13.926;2023-05-20T01:50:05;9.25;;;8.35;;
52982;SDS011;48698;45.736;13.926;2023-05-20T01:55:09;8.50;;;7.57;;
52982;SDS011;48698;45.736;13.926;2023-05-20T02:00:12;9.55;;;8.43;;
52982;SDS011;48698;45.736;13.926;2023-05-20T02:05:15;8.82;;;7.93;;
52982;SDS011;48698;45.736;13.926;2023-05-20T02:10:18;9.63;;;8.63;;
52982;SDS011;48698;45.736;13.926;2023-05-20T02:15:21;9.60;;;8.13;;
52982;SDS011;48698;45.736;13.926;2023-05-20T02:20:24;9.82;;;8.50;;
52982;SDS011;48698;45.736;13.926;2023-05-20T02:25:37;11.63;;;9.95;;
52982;SDS011;48698;45.736;13.926;2023-05-20T02:30:39;11.52;;;10.32;;
52982;SDS011;48698;45.736;13.926;2023-05-20T02:35:43;12.55;;;10.00;;
52982;SDS011;48698;45.736;13.926;2023-05-20T02:40:45;11.40;;;10.30;;
52982;SDS011;48698;45.736;13.926;2023-05-20T02:45:48;11.50;;;10.02;;
52982;SDS011;48698;45.736;13.926;2023-05-20T02:50:51;11.43;;;10.32;;
52982;SDS011;48698;45.736;13.926;2023-05-20T02:55:54;12.52;;;10.65;;
52982;SDS011;48698;45.736;13.926;2023-05-20T03:01:07;12.05;;;10.70;;
52982;SDS011;48698;45.736;13.926;2023-05-20T03:06:20;13.30;;;11.50;;
52982;SDS011;48698;45.736;13.926;2023-05-20T03:11:22;11.73;;;10.65;;
52982;SDS011;48698;45.736;13.926;2023-05-20T03:16:25;12.55;;;11.25;;
52982;SDS011;48698;45.736;13.926;2023-05-20T03:21:29;11.68;;;10.48;;
52982;SDS011;48698;45.736;13.926;2023-05-20T03:26:33;12.65;;;10.45;;
52982;SDS011;48698;45.736;13.926;2023-05-20T03:31:38;12.05;;;10.55;;
52982;SDS011;48698;45.736;13.926;2023-05-20T03:36:51;12.60;;;10.00;;
52982;SDS011;48698;45.736;13.926;2023-05-20T03:41:54;11.68;;;10.48;;
52982;SDS011;48698;45.736;13.926;2023-05-20T03:46:57;10.80;;;9.70;;
52982;SDS011;48698;45.736;13.926;2023-05-20T03:52:00;11.88;;;9.98;;
52982;SDS011;48698;45.736;13.926;2023-05-20T04:02:07;11.30;;;10.20;;
52982;SDS011;48698;45.736;13.926;2023-05-20T04:07:21;11.57;;;10.02;;
52982;SDS011;48698;45.736;13.926;2023-05-20T04:12:24;11.65;;;9.95;;
52982;SDS011;48698;45.736;13.926;2023-05-20T04:17:31;13.45;;;10.18;;
52982;SDS011;48698;45.736;13.926;2023-05-20T04:22:34;11.27;;;10.05;;
52982;SDS011;48698;45.736;13.926;2023-05-20T04:27:48;12.20;;;9.55;;
52982;SDS011;48698;45.736;13.926;2023-05-20T04:32:52;10.63;;;9.63;;
52982;SDS011;48698;45.736;13.926;2023-05-20T04:37:55;11.10;;;9.90;;
52982;SDS011;48698;45.736;13.926;2023-05-20T04:42:58;14.25;;;10.43;;
52982;SDS011;48698;45.736;13.926;2023-05-20T04:48:02;12.90;;;10.60;;
52982;SDS011;48698;45.736;13.926;2023-05-20T04:53:05;13.35;;;10.38;;
52982;SDS011;48698;45.736;13.926;2023-05-20T04:58:08;11.43;;;9.70;;
52982;SDS011;48698;45.736;13.926;2023-05-20T05:03:16;13.88;;;12.43;;
52982;SDS011;48698;45.736;13.926;2023-05-20T05:08:19;10.48;;;9.48;;
52982;SDS011;48698;45.736;13.926;2023-05-20T05:13:22;12.57;;;10.82;;
52982;SDS011;48698;45.736;13.926;2023-05-20T05:18:35;12.43;;;11.23;;
52982;SDS011;48698;45.736;13.926;2023-05-20T05:23:38;14.68;;;11.05;;
52982;SDS011;48698;45.736;13.926;2023-05-20T05:28:43;11.77;;;10.35;;
52982;SDS011;48698;45.736;13.926;2023-05-20T05:33:45;14.00;;;10.77;;
52982;SDS011;48698;45.736;13.926;2023-05-20T05:38:58;11.38;;;10.15;;
52982;SDS011;48698;45.736;13.926;2023-05-20T05:44:01;12.05;;;10.85;;
52982;SDS011;48698;45.736;13.926;2023-05-20T05:49:04;13.65;;;11.48;;
52982;SDS011;48698;45.736;13.926;2023-05-20T05:54:16;13.05;;;11.68;;
52982;SDS011;48698;45.736;13.926;2023-05-20T05:59:19;13.98;;;12.57;;
52982;SDS011;48698;45.736;13.926;2023-05-20T06:04:22;14.02;;;12.43;;
52982;SDS011;48698;45.736;13.926;2023-05-20T06:09:24;16.40;;;14.65;;
52982;SDS011;48698;45.736;13.926;2023-05-20T06:14:27;15.75;;;14.15;;
52982;SDS011;48698;45.736;13.926;2023-05-20T06:19:34;16.55;;;13.63;;
52982;SDS011;48698;45.736;13.926;2023-05-20T06:24:37;15.60;;;13.43;;
52982;SDS011;48698;45.736;13.926;2023-05-20T06:29:40;14.88;;;13.48;;
52982;SDS011;48698;45.736;13.926;2023-05-20T06:34:44;16.60;;;13.93;;
52982;SDS011;48698;45.736;13.926;2023-05-20T06:39:47;15.15;;;13.55;;
52982;SDS011;48698;45.736;13.926;2023-05-20T06:44:55;14.43;;;13.00;;
52982;SDS011;48698;45.736;13.926;2023-05-20T06:49:58;17.42;;;12.52;;
52982;SDS011;48698;45.736;13.926;2023-05-20T06:55:01;13.20;;;11.90;;
52982;SDS011;48698;45.736;13.926;2023-05-20T07:00:04;12.00;;;10.80;;
52982;SDS011;48698;45.736;13.926;2023-05-20T07:05:07;14.05;;;11.13;;
52982;SDS011;48698;45.736;13.926;2023-05-20T07:10:10;12.25;;;9.38;;
52982;SDS011;48698;45.736;13.926;2023-05-20T07:15:13;11.10;;;8.77;;
52982;SDS011;48698;45.736;13.926;2023-05-20T07:20:16;9.25;;;8.35;;
52982;SDS011;48698;45.736;13.926;2023-05-20T07:25:28;13.10;;;9.30;;
52982;SDS011;48698;45.736;13.926;2023-05-20T07:30:31;16.45;;;14.50;;
52982;SDS011;48698;45.736;13.926;2023-05-20T07:35:33;12.40;;;10.70;;
52982;SDS011;48698;45.736;13.926;2023-05-20T07:40:38;12.07;;;10.43;;
52982;SDS011;48698;45.736;13.926;2023-05-20T07:45:41;11.48;;;10.27;;
52982;SDS011;48698;45.736;13.926;2023-05-20T07:50:54;11.70;;;9.93;;
52982;SDS011;48698;45.736;13.926;2023-05-20T07:56:00;11.57;;;10.38;;
52982;SDS011;48698;45.736;13.926;2023-05-20T08:01:03;12.00;;;9.45;;
52982;SDS011;48698;45.736;13.926;2023-05-20T08:06:07;11.73;;;10.52;;
52982;SDS011;48698;45.736;13.926;2023-05-20T08:11:10;12.88;;;9.95;;
52982;SDS011;48698;45.736;13.926;2023-05-20T08:16:14;11.30;;;8.88;;
52982;SDS011;48698;45.736;13.926;2023-05-20T08:21:17;11.10;;;9.13;;
52982;SDS011;48698;45.736;13.926;2023-05-20T08:26:19;9.93;;;8.50;;
52982;SDS011;48698;45.736;13.926;2023-05-20T08:31:23;13.18;;;10.00;;
52982;SDS011;48698;45.736;13.926;2023-05-20T08:36:27;11.50;;;8.50;;
52982;SDS011;48698;45.736;13.926;2023-05-20T08:41:30;11.77;;;8.13;;
52982;SDS011;48698;45.736;13.926;2023-05-20T08:46:33;11.63;;;8.65;;
52982;SDS011;48698;45.736;13.926;2023-05-20T08:56:50;10.27;;;7.88;;
52982;SDS011;48698;45.736;13.926;2023-05-20T09:01:55;10.75;;;9.05;;
52982;SDS011;48698;45.736;13.926;2023-05-20T09:06:58;9.77;;;8.20;;
52982;SDS011;48698;45.736;13.926;2023-05-20T09:12:03;10.85;;;7.90;;
52982;SDS011;48698;45.736;13.926;2023-05-20T09:17:06;8.73;;;7.30;;
52982;SDS011;48698;45.736;13.926;2023-05-20T09:22:09;9.68;;;7.88;;
52982;SDS011;48698;45.736;13.926;2023-05-20T09:27:12;8.40;;;7.13;;
52982;SDS011;48698;45.736;13.926;2023-05-20T09:32:21;9.63;;;7.55;;
52982;SDS011;48698;45.736;13.926;2023-05-20T09:37:29;12.82;;;7.05;;
52982;SDS011;48698;45.736;13.926;2023-05-20T09:47:44;7.45;;;6.40;;
52982;SDS011;48698;45.736;13.926;2023-05-20T09:57:51;11.30;;;7.13;;
52982;SDS011;48698;45.736;13.926;2023-05-20T10:02:55;8.95;;;6.50;;
52982;SDS011;48698;45.736;13.926;2023-05-20T10:24:30;9.65;;;6.65;;
52982;SDS011;48698;45.736;13.926;2023-05-20T10:29:43;8.80;;;6.70;;
52982;SDS011;48698;45.736;13.926;2023-05-20T10:34:47;9.90;;;7.03;;
52982;SDS011;48698;45.736;13.926;2023-05-20T10:39:51;9.35;;;8.45;;
52982;SDS011;48698;45.736;13.926;2023-05-20T10:45:08;8.80;;;6.57;;
52982;SDS011;48698;45.736;13.926;2023-05-20T10:50:25;7.40;;;6.22;;
52982;SDS011;48698;45.736;13.926;2023-05-20T10:55:36;9.13;;;5.88;;
52982;SDS011;48698;45.736;13.926;2023-05-20T11:00:41;9.15;;;6.05;;
52982;SDS011;48698;45.736;13.926;2023-05-20T11:05:45;7.60;;;6.40;;
52982;SDS011;48698;45.736;13.926;2023-05-20T11:10:48;7.05;;;5.78;;
52982;SDS011;48698;45.736;13.926;2023-05-20T11:15:51;12.38;;;6.28;;
52982;SDS011;48698;45.736;13.926;2023-05-20T11:20:54;6.38;;;5.63;;
52982;SDS011;48698;45.736;13.926;2023-05-20T11:25:58;7.53;;;6.05;;
52982;SDS011;48698;45.736;13.926;2023-05-20T11:31:00;9.15;;;6.07;;
52982;SDS011;48698;45.736;13.926;2023-05-20T11:36:13;8.50;;;6.45;;
52982;SDS011;48698;45.736;13.926;2023-05-20T11:41:27;7.43;;;5.80;;
52982;SDS011;48698;45.736;13.926;2023-05-20T11:46:41;8.32;;;6.05;;
52982;SDS011;48698;45.736;13.926;2023-05-20T11:51:44;7.50;;;6.20;;
52982;SDS011;48698;45.736;13.926;2023-05-20T11:56:47;7.13;;;6.00;;
52982;SDS011;48698;45.736;13.926;2023-05-20T12:01:50;8.57;;;6.10;;
52982;SDS011;48698;45.736;13.926;2023-05-20T12:06:52;10.15;;;5.95;;
52982;SDS011;48698;45.736;13.926;2023-05-20T12:11:57;7.18;;;5.90;;
52982;SDS011;48698;45.736;13.926;2023-05-20T12:17:10;9.77;;;6.40;;
52982;SDS011;48698;45.736;13.926;2023-05-20T12:22:13;7.00;;;5.97;;
52982;SDS011;48698;45.736;13.926;2023-05-20T12:27:22;15.13;;;13.18;;
52982;SDS011;48698;45.736;13.926;2023-05-20T12:32:26;10.15;;;8.55;;
52982;SDS011;48698;45.736;13.926;2023-05-20T12:37:29;9.88;;;6.80;;
52982;SDS011;48698;45.736;13.926;2023-05-20T12:47:38;8.90;;;8.00;;
52982;SDS011;48698;45.736;13.926;2023-05-20T12:52:41;7.85;;;7.05;;
52982;SDS011;48698;45.736;13.926;2023-05-20T12:57:46;7.60;;;6.88;;
52982;SDS011;48698;45.736;13.926;2023-05-20T13:03:00;8.48;;;7.53;;
52982;SDS011;48698;45.736;13.926;2023-05-20T13:08:04;15.23;;;9.40;;
52982;SDS011;48698;45.736;13.926;2023-05-20T13:13:07;9.63;;;8.48;;
52982;SDS011;48698;45.736;13.926;2023-05-20T13:18:11;10.55;;;7.78;;
52982;SDS011;48698;45.736;13.926;2023-05-20T13:23:14;12.32;;;9.07;;
52982;SDS011;48698;45.736;13.926;2023-05-20T13:28:18;9.82;;;8.68;;
52982;SDS011;48698;45.736;13.926;2023-05-20T13:33:22;11.38;;;8.52;;
52982;SDS011;48698;45.736;13.926;2023-05-20T13:38:27;14.85;;;9.55;;
52982;SDS011;48698;45.736;13.926;2023-05-20T13:43:31;9.95;;;8.35;;
52982;SDS011;48698;45.736;13.926;2023-05-20T13:48:38;19.52;;;17.55;;
52982;SDS011;48698;45.736;13.926;2023-05-20T13:53:42;21.92;;;17.38;;
52982;SDS011;48698;45.736;13.926;2023-05-20T13:58:44;20.88;;;18.75;;
52982;SDS011;48698;45.736;13.926;2023-05-20T14:03:47;12.17;;;10.27;;
52982;SDS011;48698;45.736;13.926;2023-05-20T14:08:52;14.37;;;10.30;;
52982;SDS011;48698;45.736;13.926;2023-05-20T14:13:55;11.05;;;8.40;;
52982;SDS011;48698;45.736;13.926;2023-05-20T14:18:58;9.55;;;8.55;;
52982;SDS011;48698;45.736;13.926;2023-05-20T14:24:01;9.70;;;8.70;;
52982;SDS011;48698;45.736;13.926;2023-05-20T14:29:03;9.40;;;8.52;;
52982;SDS011;48698;45.736;13.926;2023-05-20T14:34:06;10.95;;;8.52;;
52982;SDS011;48698;45.736;13.926;2023-05-20T14:39:11;10.00;;;8.60;;
52982;SDS011;48698;45.736;13.926;2023-05-20T14:44:14;10.52;;;7.70;;
52982;SDS011;48698;45.736;13.926;2023-05-20T14:49:16;9.45;;;8.05;;
52982;SDS011;48698;45.736;13.926;2023-05-20T14:54:19;8.85;;;7.93;;
52982;SDS011;48698;45.736;13.926;2023-05-20T14:59:26;9.63;;;7.75;;
52982;SDS011;48698;45.736;13.926;2023-05-20T15:04:29;16.50;;;8.63;;
52982;SDS011;48698;45.736;13.926;2023-05-20T15:09:32;11.32;;;9.07;;
52982;SDS011;48698;45.736;13.926;2023-05-20T15:19:58;61.88;;;48.15;;
52982;SDS011;48698;45.736;13.926;2023-05-20T15:25:01;52.67;;;43.93;;
52982;SDS011;48698;45.736;13.926;2023-05-20T15:30:05;51.03;;;42.28;;
52982;SDS011;48698;45.736;13.926;2023-05-20T15:35:08;55.05;;;43.58;;
52982;SDS011;48698;45.736;13.926;2023-05-20T15:40:11;68.60;;;46.63;;
52982;SDS011;48698;45.736;13.926;2023-05-20T15:45:24;39.78;;;30.27;;
52982;SDS011;48698;45.736;13.926;2023-05-20T15:50:27;45.23;;;39.33;;
52982;SDS011;48698;45.736;13.926;2023-05-20T15:55:29;46.30;;;36.67;;
52982;SDS011;48698;45.736;13.926;2023-05-20T16:00:32;63.80;;;53.85;;
52982;SDS011;48698;45.736;13.926;2023-05-20T16:05:35;15.80;;;14.10;;
52982;SDS011;48698;45.736;13.926;2023-05-20T16:10:40;29.08;;;22.00;;
52982;SDS011;48698;45.736;13.926;2023-05-20T16:15:43;23.67;;;21.30;;
52982;SDS011;48698;45.736;13.926;2023-05-20T16:20:46;19.83;;;17.70;;
52982;SDS011;48698;45.736;13.926;2023-05-20T16:25:49;32.70;;;28.77;;
52982;SDS011;48698;45.736;13.926;2023-05-20T16:30:52;39.83;;;33.73;;
52982;SDS011;48698;45.736;13.926;2023-05-20T16:35:55;32.45;;;29.05;;
52982;SDS011;48698;45.736;13.926;2023-05-20T16:40:58;18.85;;;16.98;;
52982;SDS011;48698;45.736;13.926;2023-05-20T16:46:02;10.77;;;8.00;;
52982;SDS011;48698;45.736;13.926;2023-05-20T16:51:05;7.50;;;6.80;;
52982;SDS011;48698;45.736;13.926;2023-05-20T16:56:08;12.48;;;8.07;;
52982;SDS011;48698;45.736;13.926;2023-05-20T17:01:10;8.27;;;7.30;;
52982;SDS011;48698;45.736;13.926;2023-05-20T17:06:23;8.23;;;7.38;;
52982;SDS011;48698;45.736;13.926;2023-05-20T17:11:26;8.45;;;7.22;;
52982;SDS011;48698;45.736;13.926;2023-05-20T17:16:38;13.13;;;7.18;;
52982;SDS011;48698;45.736;13.926;2023-05-20T17:21:41;10.23;;;7.78;;
52982;SDS011;48698;45.736;13.926;2023-05-20T17:26:45;8.73;;;7.35;;
52982;SDS011;48698;45.736;13.926;2023-05-20T17:31:58;7.88;;;7.00;;
52982;SDS011;48698;45.736;13.926;2023-05-20T17:37:00;8.38;;;7.55;;
52982;SDS011;48698;45.736;13.926;2023-05-20T17:42:03;8.53;;;7.17;;
52982;SDS011;48698;45.736;13.926;2023-05-20T17:47:06;9.27;;;7.88;;
52982;SDS011;48698;45.736;13.926;2023-05-20T17:52:09;51.75;;;41.00;;
52982;SDS011;48698;45.736;13.926;2023-05-20T17:57:22;126.85;;;75.45;;
52982;SDS011;48698;45.736;13.926;2023-05-20T18:02:35;99.60;;;63.25;;
52982;SDS011;48698;45.736;13.926;2023-05-20T18:07:39;13.18;;;11.85;;
52982;SDS011;48698;45.736;13.926;2023-05-20T18:12:42;32.45;;;29.25;;
52982;SDS011;48698;45.736;13.926;2023-05-20T18:17:46;31.60;;;28.48;;
52982;SDS011;48698;45.736;13.926;2023-05-20T18:22:49;32.03;;;29.17;;
52982;SDS011;48698;45.736;13.926;2023-05-20T18:28:05;12.20;;;10.95;;
52982;SDS011;48698;45.736;13.926;2023-05-20T18:33:10;21.90;;;20.05;;
52982;SDS011;48698;45.736;13.926;2023-05-20T18:38:22;12.18;;;8.50;;
52982;SDS011;48698;45.736;13.926;2023-05-20T18:43:37;20.58;;;18.48;;
52982;SDS011;48698;45.736;13.926;2023-05-20T18:48:39;14.02;;;11.52;;
52982;SDS011;48698;45.736;13.926;2023-05-20T18:53:42;9.48;;;8.48;;
52982;SDS011;48698;45.736;13.926;2023-05-20T18:58:45;9.63;;;8.23;;
52982;SDS011;48698;45.736;13.926;2023-05-20T19:03:48;10.52;;;7.93;;
52982;SDS011;48698;45.736;13.926;2023-05-20T19:08:50;13.25;;;9.02;;
52982;SDS011;48698;45.736;13.926;2023-05-20T19:13:53;11.57;;;8.35;;
52982;SDS011;48698;45.736;13.926;2023-05-20T19:18:57;9.57;;;8.40;;
52982;SDS011;48698;45.736;13.926;2023-05-20T19:23:59;9.07;;;8.10;;
52982;SDS011;48698;45.736;13.926;2023-05-20T19:29:02;10.07;;;8.25;;
52982;SDS011;48698;45.736;13.926;2023-05-20T19:34:05;12.73;;;8.98;;
52982;SDS011;48698;45.736;13.926;2023-05-20T19:39:08;12.77;;;8.83;;
52982;SDS011;48698;45.736;13.926;2023-05-20T19:44:11;9.18;;;8.27;;
52982;SDS011;48698;45.736;13.926;2023-05-20T19:49:14;9.07;;;8.07;;
52982;SDS011;48698;45.736;13.926;2023-05-20T19:54:27;9.82;;;7.97;;
52982;SDS011;48698;45.736;13.926;2023-05-20T19:59:30;10.63;;;8.30;;
52982;SDS011;48698;45.736;13.926;2023-05-20T20:04:42;10.32;;;7.57;;
52982;SDS011;48698;45.736;13.926;2023-05-20T20:09:45;9.83;;;8.40;;
52982;SDS011;48698;45.736;13.926;2023-05-20T20:14:50;12.00;;;8.52;;
52982;SDS011;48698;45.736;13.926;2023-05-20T20:24:58;15.38;;;11.82;;
52982;SDS011;48698;45.736;13.926;2023-05-20T20:30:18;14.88;;;13.38;;
52982;SDS011;48698;45.736;13.926;2023-05-20T20:35:25;65.50;;;55.25;;
52982;SDS011;48698;45.736;13.926;2023-05-20T20:40:29;68.13;;;55.88;;
52982;SDS011;48698;45.736;13.926;2023-05-20T20:45:32;26.17;;;23.38;;
52982;SDS011;48698;45.736;13.926;2023-05-20T20:50:36;48.78;;;43.67;;
52982;SDS011;48698;45.736;13.926;2023-05-20T20:55:38;49.30;;;43.78;;
52982;SDS011;48698;45.736;13.926;2023-05-20T21:00:52;16.10;;;13.93;;
52982;SDS011;48698;45.736;13.926;2023-05-20T21:05:55;14.30;;;12.85;;
52982;SDS011;48698;45.736;13.926;2023-05-20T21:10:58;21.13;;;18.88;;
52982;SDS011;48698;45.736;13.926;2023-05-20T21:16:00;15.48;;;12.77;;
52982;SDS011;48698;45.736;13.926;2023-05-20T21:21:03;15.98;;;12.38;;
52982;SDS011;48698;45.736;13.926;2023-05-20T21:26:11;14.27;;;12.85;;
52982;SDS011;48698;45.736;13.926;2023-05-20T21:31:13;23.27;;;21.17;;
52982;SDS011;48698;45.736;13.926;2023-05-20T21:36:16;18.70;;;17.10;;
52982;SDS011;48698;45.736;13.926;2023-05-20T21:41:19;20.20;;;18.40;;
52982;SDS011;48698;45.736;13.926;2023-05-20T21:51:26;15.20;;;11.80;;
52982;SDS011;48698;45.736;13.926;2023-05-20T21:56:37;12.05;;;10.73;;
52982;SDS011;48698;45.736;13.926;2023-05-20T22:01:40;11.95;;;10.52;;
52982;SDS011;48698;45.736;13.926;2023-05-20T22:06:43;13.93;;;11.02;;
52982;SDS011;48698;45.736;13.926;2023-05-20T22:11:46;11.77;;;10.57;;
52982;SDS011;48698;45.736;13.926;2023-05-20T22:16:49;10.63;;;9.65;;
52982;SDS011;48698;45.736;13.926;2023-05-20T22:22:02;11.32;;;9.75;;
52982;SDS011;48698;45.736;13.926;2023-05-20T22:27:15;12.88;;;9.63;;
52982;SDS011;48698;45.736;13.926;2023-05-20T22:32:17;10.98;;;9.52;;
52982;SDS011;48698;45.736;13.926;2023-05-20T22:37:30;11.25;;;9.68;;
52982;SDS011;48698;45.736;13.926;2023-05-20T22:42:33;15.73;;;10.60;;
52982;SDS011;48698;45.736;13.926;2023-05-20T22:47:35;10.85;;;9.75;;
52982;SDS011;48698;45.736;13.926;2023-05-20T22:52:39;11.05;;;9.90;;
52982;SDS011;48698;45.736;13.926;2023-05-20T22:57:42;11.40;;;9.57;;
52982;SDS011;48698;45.736;13.926;2023-05-20T23:02:44;11.25;;;10.07;;
52982;SDS011;48698;45.736;13.926;2023-05-20T23:07:51;11.00;;;9.85;;
52982;SDS011;48698;45.736;13.926;2023-05-20T23:13:06;10.55;;;9.02;;
52982;SDS011;48698;45.736;13.926;2023-05-20T23:18:09;12.77;;;9.68;;
52982;SDS011;48698;45.736;13.926;2023-05-20T23:23:12;10.23;;;9.23;;
52982;SDS011;48698;45.736;13.926;2023-05-20T23:28:16;14.48;;;9.85;;
52982;SDS011;48698;45.736;13.926;2023-05-20T23:33:19;12.15;;;9.00;;
52982;SDS011;48698;45.736;13.926;2023-05-20T23:38:26;9.65;;;8.65;;
52982;SDS011;48698;45.736;13.926;2023-05-20T23:43:28;12.00;;;9.32;;
52982;SDS011;48698;45.736;13.926;2023-05-20T23:48:31;10.13;;;8.93;;
52982;SDS011;48698;45.736;13.926;2023-05-20T23:53:34;13.43;;;9.13;;
52982;SDS011;48698;45.736;13.926;2023-05-20T23:58:38;10.27;;;9.27;;
